Time;durP1;ratioP1;P1;durP2;ratioP2;P2;SDS_P1;SDS_P2;PMS_P1;PMS_P2;Temp;Humidity;BMP_temperature;BMP_pressure;BME280_temperature;BME280_humidity;BME280_pressure;Samples;Min_cycle;Max_cycle;Signal;HPM_P1;HPM_P2
2023/03/18 00:04:27;;;;;;;0.10;0.10;;;;;;;11.35;100.00;100749.78;10531899;28;20044;-76
2023/03/18 00:09:29;;;;;;;0.63;0.63;;;;;;;11.31;100.00;100752.28;10526909;28;20123;-77
2023/03/18 00:14:30;;;;;;;0.32;0.20;;;;;;;11.27;100.00;100741.03;10559279;28;20448;-77
2023/03/18 00:19:32;;;;;;;0.47;0.35;;;;;;;11.25;100.00;100747.84;10587269;28;20040;-77
2023/03/18 00:24:34;;;;;;;0.45;0.35;;;;;;;11.15;100.00;100735.59;10552338;28;20083;-78
2023/03/18 00:29:36;;;;;;;6.50;1.10;;;;;;;11.13;100.00;100738.16;10526677;28;20044;-77
2023/03/18 00:34:39;;;;;;;0.47;0.32;;;;;;;10.94;100.00;100737.78;10560212;28;20402;-77
2023/03/18 00:39:43;;;;;;;0.80;0.47;;;;;;;10.95;100.00;100748.94;10544317;28;20079;-77
2023/03/18 00:44:45;;;;;;;0.98;0.70;;;;;;;10.82;100.00;100742.66;10526296;28;20105;-77
2023/03/18 00:49:50;;;;;;;0.47;0.47;;;;;;;10.99;100.00;100744.72;10491173;28;20044;-78
2023/03/18 00:54:55;;;;;;;0.22;0.22;;;;;;;11.07;100.00;100749.19;10487099;28;20492;-77
2023/03/18 00:59:58;;;;;;;0.55;0.30;;;;;;;10.81;100.00;100745.19;10549796;28;20388;-77
2023/03/18 01:05:01;;;;;;;0.22;0.20;;;;;;;11.10;100.00;100748.38;10547382;28;20048;-78
2023/03/18 01:10:04;;;;;;;0.20;0.20;;;;;;;11.19;100.00;100742.59;10534713;28;20035;-78
2023/03/18 01:15:12;;;;;;;0.73;0.28;;;;;;;11.04;100.00;100751.72;10536998;28;20097;-78
2023/03/18 01:20:16;;;;;;;0.57;0.50;;;;;;;10.89;100.00;100751.41;10533315;28;20047;-78
2023/03/18 01:25:22;;;;;;;0.32;0.30;;;;;;;10.75;100.00;100751.97;10526084;28;20048;-78
2023/03/18 01:30:27;;;;;;;0.17;0.10;;;;;;;10.47;100.00;100724.69;10539307;28;20047;-78
2023/03/18 01:35:31;;;;;;;0.35;0.32;;;;;;;10.41;100.00;100719.41;10539361;28;20664;-78
2023/03/18 01:40:34;;;;;;;0.55;0.15;;;;;;;10.38;100.00;100714.16;10542154;28;20389;-76
2023/03/18 01:45:41;;;;;;;1.23;1.13;;;;;;;10.20;100.00;100710.25;10529069;28;20040;-77
2023/03/18 01:50:46;;;;;;;3.92;0.60;;;;;;;10.20;100.00;100688.81;10527273;28;20044;-78
2023/03/18 01:55:51;;;;;;;1.17;0.55;;;;;;;10.34;100.00;100691.72;10548624;27;20056;-77
2023/03/18 02:01:25;;;;;;;1.27;0.95;;;;;;;10.36;100.00;100683.19;10544925;28;20092;-78
2023/03/18 02:06:30;;;;;;;0.40;0.40;;;;;;;10.59;100.00;100680.31;10513695;28;20048;-77
2023/03/18 02:11:40;;;;;;;0.20;0.20;;;;;;;10.74;100.00;100688.38;10524796;28;20036;-78
2023/03/18 02:16:47;;;;;;;0.40;0.40;;;;;;;10.74;100.00;100692.63;10562595;27;20110;-78
2023/03/18 02:22:20;;;;;;;0.35;0.22;;;;;;;10.65;100.00;100695.91;10524558;28;20154;-78
2023/03/18 02:27:32;;;;;;;0.10;0.10;;;;;;;10.55;100.00;100683.63;10568863;28;21375;-77
2023/03/18 02:32:34;;;;;;;0.68;0.68;;;;;;;10.41;100.00;100673.88;10524918;28;20041;-77
2023/03/18 02:37:39;;;;;;;0.55;0.52;;;;;;;10.44;100.00;100668.81;10540888;28;20051;-78
2023/03/18 02:42:42;;;;;;;0.30;0.30;;;;;;;10.49;100.00;100671.50;10514480;28;20040;-78
2023/03/18 02:47:47;;;;;;;2.17;0.43;;;;;;;10.47;100.00;100679.19;10526477;28;20047;-78
2023/03/18 02:52:50;;;;;;;0.88;0.52;;;;;;;10.38;100.00;100667.81;10549286;28;20131;-82
2023/03/18 02:57:52;;;;;;;3.88;1.77;;;;;;;9.90;100.00;100653.78;10531893;28;20044;-82
2023/03/18 03:02:54;;;;;;;0.73;0.73;;;;;;;9.53;100.00;100571.44;10532994;28;20048;-82
2023/03/18 03:07:56;;;;;;;0.10;0.10;;;;;;;9.45;100.00;100496.66;10534948;28;20039;-83
2023/03/18 03:12:59;;;;;;;0.90;0.82;;;;;;;9.48;100.00;100429.88;10535175;28;20048;-81
2023/03/18 03:18:00;;;;;;;0.70;0.43;;;;;;;9.56;100.00;100394.03;10564761;28;20514;-81
2023/03/18 03:23:07;;;;;;;1.73;0.52;;;;;;;9.65;100.00;100365.94;10536836;28;20051;-81
2023/03/18 03:28:11;;;;;;;1.58;0.88;;;;;;;9.65;100.00;100342.81;10524064;28;20082;-82
2023/03/18 03:33:13;;;;;;;0.73;0.38;;;;;;;9.58;100.00;100332.34;10543391;28;20047;-82
2023/03/18 03:38:15;;;;;;;7.28;1.48;;;;;;;9.52;100.00;100318.53;10544549;28;20065;-82
2023/03/18 03:43:17;;;;;;;1.27;0.80;;;;;;;9.58;100.00;100312.66;10545223;28;20055;-82
2023/03/18 03:48:21;;;;;;;3.15;1.17;;;;;;;9.49;100.00;100297.88;10555354;28;20047;-82
2023/03/18 03:53:23;;;;;;;1.08;0.63;;;;;;;9.48;100.00;100270.47;10542470;28;20097;-82
2023/03/18 03:58:27;;;;;;;1.02;0.63;;;;;;;9.59;100.00;100236.34;10529739;28;20045;-82
2023/03/18 04:03:29;;;;;;;0.45;0.45;;;;;;;9.39;100.00;100229.13;10571141;27;20040;-82
2023/03/18 04:08:31;;;;;;;1.95;0.55;;;;;;;9.25;100.00;100212.56;10510955;28;20045;-82
2023/03/18 04:13:33;;;;;;;0.65;0.35;;;;;;;9.31;100.00;100194.69;10575666;27;20047;-82
2023/03/18 04:18:35;;;;;;;0.70;0.38;;;;;;;9.47;100.00;100182.97;10550379;28;20116;-82
2023/03/18 04:23:38;;;;;;;0.45;0.45;;;;;;;9.55;100.00;100185.72;10529359;28;20050;-82
2023/03/18 04:28:40;;;;;;;3.08;0.55;;;;;;;9.49;100.00;100178.75;10564431;28;20118;-82
2023/03/18 04:33:44;;;;;;;0.25;0.22;;;;;;;9.49;100.00;100169.31;10573520;27;20570;-82
2023/03/18 04:38:46;;;;;;;2.20;0.55;;;;;;;9.33;100.00;100175.03;10507596;28;20043;-82
2023/03/18 04:43:48;;;;;;;2.92;0.35;;;;;;;9.23;100.00;100167.97;10522868;28;20514;-82
2023/03/18 04:48:51;;;;;;;0.60;0.60;;;;;;;9.07;100.00;100165.09;10558747;27;20554;-81
2023/03/18 04:53:53;;;;;;;0.95;0.65;;;;;;;9.03;100.00;100155.59;10519136;28;20043;-81
2023/03/18 04:58:55;;;;;;;0.10;0.08;;;;;;;9.16;100.00;100143.84;10539988;28;20066;-81
2023/03/18 05:04:03;;;;;;;3.88;0.75;;;;;;;9.21;100.00;100140.53;10559490;28;20071;-78
2023/03/18 05:09:17;;;;;;;0.93;0.63;;;;;;;9.29;100.00;100120.13;10529883;28;20044;-77
2023/03/18 05:14:19;;;;;;;2.20;1.30;;;;;;;9.30;100.00;100111.56;10525148;28;20036;-77
2023/03/18 05:19:24;;;;;;;1.45;0.85;;;;;;;9.42;100.00;100099.75;10525281;28;20126;-78
2023/03/18 05:24:34;;;;;;;2.20;0.57;;;;;;;9.31;100.00;100097.00;10525859;28;20059;-77
2023/03/18 05:29:39;;;;;;;1.35;0.93;;;;;;;9.25;100.00;100081.47;10526097;28;20078;-77
2023/03/18 05:34:51;;;;;;;1.25;1.05;;;;;;;9.32;100.00;100083.31;10484040;28;20101;-77
2023/03/18 05:39:54;;;;;;;1.50;1.23;;;;;;;9.15;100.00;100081.31;10498736;28;20041;-78
2023/03/18 05:44:57;;;;;;;1.05;0.60;;;;;;;9.12;100.00;100078.66;10508593;28;20047;-77
2023/03/18 05:50:01;;;;;;;0.22;0.17;;;;;;;8.95;100.00;100073.22;10540521;28;20044;-78
2023/03/18 05:55:06;;;;;;;0.30;0.28;;;;;;;9.24;100.00;100059.19;10540257;28;20067;-77
2023/03/18 06:00:12;;;;;;;2.97;2.08;;;;;;;9.09;100.00;100076.06;10561310;28;20071;-78
2023/03/18 06:05:18;;;;;;;2.20;1.08;;;;;;;9.09;100.00;100065.78;10550699;28;20437;-78
2023/03/18 06:10:22;;;;;;;0.98;0.75;;;;;;;9.36;100.00;100049.09;10522810;28;20442;-77
2023/03/18 06:15:24;;;;;;;3.30;0.85;;;;;;;9.35;100.00;100048.25;10522789;28;20048;-78
2023/03/18 06:20:26;;;;;;;1.67;0.82;;;;;;;9.42;100.00;100032.91;10523273;28;20548;-77
2023/03/18 06:25:29;;;;;;;6.65;0.57;;;;;;;9.42;100.00;100041.47;10530303;28;20109;-77
2023/03/18 06:30:31;;;;;;;0.93;0.60;;;;;;;9.42;100.00;100056.06;10522128;28;20072;-77
2023/03/18 06:35:34;;;;;;;1.33;1.17;;;;;;;9.51;100.00;100043.38;10522033;28;20549;-77
2023/03/18 06:40:39;;;;;;;0.70;0.70;;;;;;;9.56;100.00;100035.72;10529814;28;20122;-78
2023/03/18 06:45:43;;;;;;;1.25;0.50;;;;;;;9.65;100.00;100041.00;10555120;28;20043;-77
2023/03/18 06:50:49;;;;;;;1.10;0.95;;;;;;;9.75;100.00;100032.59;10563739;28;20062;-77
2023/03/18 06:55:56;;;;;;;1.98;1.52;;;;;;;9.76;100.00;100033.44;10526743;28;20052;-76
2023/03/18 07:01:02;;;;;;;3.88;1.85;;;;;;;9.80;100.00;100030.94;10546578;28;20047;-78
2023/03/18 07:06:11;;;;;;;1.40;0.90;;;;;;;10.03;100.00;100025.28;10532681;28;20104;-77
2023/03/18 07:11:14;;;;;;;5.10;1.63;;;;;;;10.15;100.00;100022.00;10531917;28;20043;-77
2023/03/18 07:16:21;;;;;;;0.30;0.20;;;;;;;10.16;100.00;100024.59;10521330;28;20047;-77
2023/03/18 07:21:23;;;;;;;0.63;0.45;;;;;;;10.46;100.00;100020.72;10510038;28;20097;-76
2023/03/18 07:26:25;;;;;;;1.13;0.85;;;;;;;10.48;100.00;100031.91;10483767;28;20051;-77
2023/03/18 07:31:28;;;;;;;1.65;1.35;;;;;;;10.65;100.00;100038.97;10500679;28;20051;-78
2023/03/18 07:36:30;;;;;;;1.13;0.85;;;;;;;10.69;100.00;100037.28;10526599;28;20056;-82
2023/03/18 07:41:32;;;;;;;3.85;1.42;;;;;;;10.85;100.00;100039.19;10510382;28;20569;-81
2023/03/18 07:46:40;;;;;;;2.38;1.88;;;;;;;10.96;100.00;100044.47;10529399;28;20047;-81
2023/03/18 07:51:41;;;;;;;3.22;1.48;;;;;;;11.04;100.00;100052.25;10542607;28;20072;-82
2023/03/18 07:56:43;;;;;;;1.13;0.73;;;;;;;10.92;100.00;100064.19;10517440;28;20055;-82
2023/03/18 08:01:45;;;;;;;2.35;1.35;;;;;;;11.10;100.00;100060.06;10537177;28;20040;-82
2023/03/18 08:06:48;;;;;;;2.10;1.67;;;;;;;11.15;100.00;100071.31;10520137;28;20060;-81
2023/03/18 08:11:49;;;;;;;2.70;1.50;;;;;;;12.17;100.00;100035.13;10540346;28;20040;-81
2023/03/18 08:16:51;;;;;;;2.58;1.90;;;;;;;11.66;100.00;100063.16;10522910;28;20518;-82
2023/03/18 08:21:53;;;;;;;2.08;0.93;;;;;;;12.06;100.00;100069.50;10512986;28;20044;-81
2023/03/18 08:26:55;;;;;;;1.40;1.05;;;;;;;12.35;100.00;100092.03;10531960;28;20044;-82
2023/03/18 08:31:57;;;;;;;2.65;1.10;;;;;;;12.47;100.00;100106.75;10524201;28;20093;-83
2023/03/18 08:36:59;;;;;;;1.77;1.15;;;;;;;13.00;100.00;100138.84;10552761;28;20047;-83
2023/03/18 08:42:03;;;;;;;1.33;0.90;;;;;;;13.11;100.00;100176.81;10504213;28;20502;-82
2023/03/18 08:47:05;;;;;;;4.70;2.20;;;;;;;12.79;100.00;100224.94;10514081;28;20070;-82
2023/03/18 08:52:07;;;;;;;0.98;0.50;;;;;;;14.01;100.00;100229.69;10524696;28;20044;-82
2023/03/18 08:57:09;;;;;;;1.58;1.15;;;;;;;13.10;100.00;100315.63;10533737;28;20036;-82
2023/03/18 09:02:17;;;;;;;2.38;1.15;;;;;;;13.09;100.00;100334.56;10518803;28;20032;-81
2023/03/18 09:07:18;;;;;;;1.25;0.52;;;;;;;13.61;100.00;100362.47;10544235;28;20048;-81
2023/03/18 09:12:21;;;;;;;0.70;0.70;;;;;;;13.56;100.00;100400.41;10545020;28;20081;-80
2023/03/18 09:17:23;;;;;;;3.28;1.02;;;;;;;13.75;100.00;100441.91;10540469;28;20055;-83
2023/03/18 09:22:46;;;;;;;1.35;0.65;;;;;;;14.96;100.00;100471.72;10526428;28;20206;-83
2023/03/18 09:27:48;;;;;;;2.10;1.23;;;;;;;14.09;100.00;100535.34;10540004;27;20089;-83
2023/03/18 09:32:49;;;;;;;0.98;0.88;;;;;;;15.22;100.00;100552.19;10541934;27;20089;-82
2023/03/18 09:37:52;;;;;;;12.25;0.85;;;;;;;14.39;100.00;100583.00;10529463;28;20049;-82
2023/03/18 09:43:18;;;;;;;0.38;0.28;;;;;;;14.73;100.00;100606.50;10527094;28;20040;-81
2023/03/18 09:48:33;;;;;;;0.50;0.35;;;;;;;14.84;100.00;100617.81;10528356;28;20494;-79
2023/03/18 09:53:51;;;;;;;0.52;0.52;;;;;;;14.06;100.00;100631.16;10575644;27;20098;-78
2023/03/18 09:59:02;;;;;;;0.98;0.50;;;;;;;14.11;100.00;100606.19;10547882;27;20127;-78
2023/03/18 10:04:03;;;;;;;0.82;0.60;;;;;;;14.84;100.00;100576.31;10556733;28;20085;-78
2023/03/18 10:09:13;;;;;;;1.75;0.95;;;;;;;14.40;100.00;100602.88;10538654;28;20040;-79
2023/03/18 10:14:30;;;;;;;1.17;0.70;;;;;;;15.35;100.00;100614.47;10500625;28;20510;-78
2023/03/18 10:19:35;;;;;;;1.48;0.82;;;;;;;13.58;100.00;100660.13;10537341;28;20538;-78
2023/03/18 10:24:46;;;;;;;0.77;0.47;;;;;;;14.07;100.00;100648.44;10499535;28;20106;-77
2023/03/18 10:29:54;;;;;;;0.68;0.50;;;;;;;15.28;100.00;100664.63;10520280;28;20091;-78
2023/03/18 10:35:02;;;;;;;1.35;0.65;;;;;;;14.82;100.00;100680.91;10560485;28;20410;-79
2023/03/18 10:40:11;;;;;;;0.15;0.10;;;;;;;15.36;100.00;100679.34;10525299;28;20048;-78
2023/03/18 10:45:23;;;;;;;0.35;0.22;;;;;;;16.63;100.00;100751.34;10520106;28;20048;-79
2023/03/18 10:50:32;;;;;;;0.40;0.40;;;;;;;15.74;100.00;100721.88;10480391;28;20044;-79
2023/03/18 10:55:42;;;;;;;1.17;0.73;;;;;;;15.82;100.00;100761.69;10538415;28;20158;-79
2023/03/18 11:00:44;;;;;;;0.80;0.45;;;;;;;16.54;100.00;100767.81;10547496;28;20040;-78
2023/03/18 11:05:51;;;;;;;2.20;0.80;;;;;;;17.91;100.00;100776.91;10557176;28;20055;-78
2023/03/18 11:10:53;;;;;;;0.30;0.30;;;;;;;16.40;100.00;100827.66;10496322;28;20036;-79
2023/03/18 11:15:55;;;;;;;0.20;0.20;;;;;;;16.86;100.00;100805.09;10538556;28;20457;-79
2023/03/18 11:21:00;;;;;;;0.30;0.30;;;;;;;16.72;100.00;100787.72;10581244;28;20047;-79
2023/03/18 11:26:01;;;;;;;0.30;0.30;;;;;;;16.81;100.00;100792.94;10569618;28;20047;-78
2023/03/18 11:31:04;;;;;;;0.40;0.38;;;;;;;17.02;100.00;100806.78;10520804;28;20097;-77
2023/03/18 11:36:08;;;;;;;0.70;0.55;;;;;;;17.54;100.00;100803.16;10537303;28;20083;-78
2023/03/18 11:41:22;;;;;;;0.60;0.10;;;;;;;17.58;100.00;100843.06;10522764;28;20135;-78
2023/03/18 11:46:38;;;;;;;0.28;0.20;;;;;;;17.49;100.00;100824.88;10528151;28;20044;-78
2023/03/18 11:51:58;;;;;;;0.20;0.20;;;;;;;17.85;100.00;100836.00;10519479;28;20093;-77
2023/03/18 11:57:14;;;;;;;1.20;0.55;;;;;;;18.03;100.00;100824.63;10527484;28;20047;-83
2023/03/18 12:02:50;;;;;;;0.40;0.15;;;;;;;15.89;100.00;100837.09;10521328;28;20093;-83
2023/03/18 12:08:08;;;;;;;0.10;0.08;;;;;;;17.74;100.00;100823.91;10523235;28;20054;-83
2023/03/18 12:13:21;;;;;;;0.45;0.30;;;;;;;16.74;100.00;100847.59;10521278;28;20483;-83
2023/03/18 12:18:44;;;;;;;0.13;0.13;;;;;;;16.40;100.00;100819.84;10515046;28;20074;-82
2023/03/18 12:24:07;;;;;;;0.63;0.40;;;;;;;16.49;100.00;100853.63;10547604;28;20121;-83
2023/03/18 12:29:36;;;;;;;0.52;0.40;;;;;;;17.89;100.00;100809.06;10518257;28;20052;-82
2023/03/18 12:34:44;;;;;;;0.47;0.30;;;;;;;18.88;100.00;100860.50;10510346;28;20048;-83
2023/03/18 12:40:14;;;;;;;0.38;0.30;;;;;;;18.37;100.00;100859.16;10528146;28;20044;-84
2023/03/18 12:45:20;;;;;;;0.32;0.13;;;;;;;16.83;100.00;100867.50;10518101;28;20490;-82
2023/03/18 12:50:46;;;;;;;0.20;0.20;;;;;;;16.50;100.00;100798.16;10536387;28;20032;-81
2023/03/18 12:55:54;;;;;;;0.43;0.20;;;;;;;17.52;100.00;100811.84;10513238;28;20047;-82
2023/03/18 13:01:06;;;;;;;0.10;0.10;;;;;;;16.92;100.00;100818.06;10545842;28;20040;-82
2023/03/18 13:06:26;;;;;;;0.00;0.00;;;;;;;16.07;100.00;100823.28;10536077;28;20101;-82
2023/03/18 13:11:33;;;;;;;;;;;;;;;16.12;100.00;100805.94;10535470;28;20044;-82
2023/03/18 13:16:37;;;;;;;0.28;0.15;;;;;;;16.15;100.00;100795.56;10537204;28;19956;-82
2023/03/18 13:21:45;;;;;;;0.95;0.52;;;;;;;16.12;100.00;100788.59;10523172;28;20044;-81
2023/03/18 13:27:01;;;;;;;0.35;0.20;;;;;;;16.33;100.00;100773.91;10518664;28;20044;-83
2023/03/18 13:32:31;;;;;;;0.20;0.20;;;;;;;16.08;100.00;100768.69;10517875;28;20050;-81
2023/03/18 13:38:12;;;;;;;0.20;0.10;;;;;;;15.94;100.00;100786.84;10517740;28;20048;-81
2023/03/18 13:43:18;;;;;;;0.00;0.00;;;;;;;16.11;100.00;100797.28;10507884;28;20144;-82
2023/03/18 13:48:30;;;;;;;0.40;0.30;;;;;;;15.90;100.00;100794.66;10543484;28;20048;-83
2023/03/18 13:53:40;;;;;;;0.85;0.63;;;;;;;15.64;100.00;100782.44;10550572;27;20051;-83
2023/03/18 13:58:44;;;;;;;0.40;0.20;;;;;;;15.96;100.00;100747.91;10508980;28;20056;-83
2023/03/18 14:03:46;;;;;;;0.65;0.22;;;;;;;15.88;100.00;100755.66;10516661;28;20410;-82
2023/03/18 14:08:52;;;;;;;0.10;0.10;;;;;;;15.98;100.00;100751.34;10552341;28;20059;-83
2023/03/18 14:14:00;;;;;;;0.17;0.13;;;;;;;16.68;100.00;100759.16;10533982;28;20044;-83
2023/03/18 14:19:18;;;;;;;0.00;0.00;;;;;;;16.26;100.00;100767.84;10517021;28;20047;-82
2023/03/18 14:24:24;;;;;;;0.00;0.00;;;;;;;15.82;100.00;100764.28;10531403;28;20119;-82
2023/03/18 14:29:35;;;;;;;0.22;0.22;;;;;;;15.82;100.00;100759.09;10516089;28;20046;-83
2023/03/18 14:34:57;;;;;;;0.20;0.20;;;;;;;15.43;100.00;100772.81;10515855;28;20051;-82
2023/03/18 14:40:17;;;;;;;0.00;0.00;;;;;;;15.04;100.00;100765.72;10518965;28;20040;-82
2023/03/18 14:45:26;;;;;;;0.00;0.00;;;;;;;15.18;100.00;100737.25;10537098;28;20092;-82
2023/03/18 14:50:44;;;;;;;0.25;0.20;;;;;;;15.43;100.00;100721.78;10538985;28;20421;-82
2023/03/18 14:55:48;;;;;;;0.15;0.10;;;;;;;15.32;100.00;100706.19;10510600;28;20040;-82
2023/03/18 15:01:12;;;;;;;0.25;0.20;;;;;;;14.97;100.00;100726.78;10515473;28;20506;-82
2023/03/18 15:06:24;;;;;;;0.52;0.10;;;;;;;14.62;100.00;100704.09;10511497;28;20092;-84
2023/03/18 15:11:28;;;;;;;0.57;0.10;;;;;;;14.84;100.00;100664.50;10515225;28;20042;-83
2023/03/18 15:16:37;;;;;;;0.00;0.00;;;;;;;14.81;100.00;100654.09;10522713;28;20261;-84
2023/03/18 15:21:59;;;;;;;0.00;0.00;;;;;;;14.84;100.00;100673.97;10500334;28;20052;-83
2023/03/18 15:27:13;;;;;;;0.30;0.15;;;;;;;15.21;100.00;100681.91;10514414;28;20051;-83
2023/03/18 15:32:17;;;;;;;0.45;0.15;;;;;;;15.31;100.00;100680.19;10507573;28;20052;-80
2023/03/18 15:38:07;;;;;;;0.45;0.22;;;;;;;15.55;100.00;100690.66;10508756;28;20055;-82
2023/03/18 15:43:08;;;;;;;0.00;0.00;;;;;;;15.66;100.00;100677.69;10497264;28;20504;-82
2023/03/18 15:48:22;;;;;;;0.30;0.30;;;;;;;16.35;100.00;100683.75;10519661;28;20048;-82
2023/03/18 15:53:38;;;;;;;0.00;0.00;;;;;;;16.36;100.00;100689.84;10527574;28;20082;-83
2023/03/18 15:58:39;;;;;;;0.38;0.20;;;;;;;15.79;100.00;100699.34;10540832;28;20109;-83
2023/03/18 16:03:42;;;;;;;1.15;0.30;;;;;;;15.54;100.00;100696.72;10521886;28;20055;-82
2023/03/18 16:08:46;;;;;;;2.83;0.32;;;;;;;15.78;100.00;100717.53;10536603;28;20105;-84
2023/03/18 16:13:48;;;;;;;0.45;0.22;;;;;;;15.81;100.00;100696.75;10533201;28;20059;-83
2023/03/18 16:18:51;;;;;;;0.75;0.45;;;;;;;15.04;100.00;100724.22;10521616;28;20153;-83
2023/03/18 16:23:55;;;;;;;0.10;0.10;;;;;;;15.25;100.00;100716.53;10530170;28;20036;-84
2023/03/18 16:28:57;;;;;;;0.00;0.00;;;;;;;15.10;100.00;100712.16;10519628;28;20378;-83
2023/03/18 16:33:59;;;;;;;0.15;0.10;;;;;;;15.16;100.00;100719.97;10537831;28;20416;-82
2023/03/18 16:39:00;;;;;;;0.00;0.00;;;;;;;15.10;100.00;100707.81;10537992;28;20052;-83
2023/03/18 16:44:10;;;;;;;0.00;0.00;;;;;;;15.09;100.00;100711.28;10539684;28;20090;-83
2023/03/18 16:49:20;;;;;;;0.10;0.10;;;;;;;14.70;100.00;100734.44;10529576;28;20043;-83
2023/03/18 16:54:23;;;;;;;;;;;;;;;14.25;100.00;100704.69;10522877;28;20067;-83
2023/03/18 16:59:30;;;;;;;0.03;0.03;;;;;;;13.96;100.00;100708.78;10537676;28;20292;-82
2023/03/18 17:04:34;;;;;;;0.40;0.30;;;;;;;13.79;100.00;100687.06;10537089;28;20040;-82
2023/03/18 17:09:38;;;;;;;0.22;0.00;;;;;;;13.66;100.00;100683.50;10518796;28;20040;-83
2023/03/18 17:14:46;;;;;;;0.00;0.00;;;;;;;13.45;100.00;100684.13;10531335;28;20044;-82
2023/03/18 17:19:48;;;;;;;0.35;0.32;;;;;;;13.11;100.00;100673.38;10537051;28;20368;-81
2023/03/18 17:24:49;;;;;;;0.47;0.47;;;;;;;12.78;100.00;100660.06;10538295;28;20036;-82
2023/03/18 17:29:51;;;;;;;0.22;0.22;;;;;;;13.08;100.00;100663.00;10516808;28;20093;-81
2023/03/18 17:34:53;;;;;;;0.25;0.20;;;;;;;12.93;100.00;100664.53;10531495;28;20459;-82
2023/03/18 17:39:55;;;;;;;0.25;0.13;;;;;;;12.91;100.00;100675.72;10522185;28;20052;-83
2023/03/18 17:45:03;;;;;;;0.20;0.20;;;;;;;12.80;100.00;100673.00;10518161;28;20462;-82
2023/03/18 17:50:08;;;;;;;0.85;0.55;;;;;;;12.77;100.00;100678.16;10495909;28;20495;-83
2023/03/18 17:55:21;;;;;;;0.40;0.40;;;;;;;12.64;100.00;100677.97;10533988;28;20040;-83
2023/03/18 18:00:25;;;;;;;0.15;0.15;;;;;;;12.22;100.00;100648.94;10519657;28;20146;-83
2023/03/18 18:05:26;;;;;;;0.20;0.20;;;;;;;11.43;100.00;100639.88;10513473;28;20211;-83
2023/03/18 18:10:28;;;;;;;0.22;0.13;;;;;;;11.35;100.00;100609.63;10532017;28;20570;-83
2023/03/18 18:15:30;;;;;;;0.38;0.35;;;;;;;11.24;100.00;100596.53;10529063;28;20093;-83
2023/03/18 18:20:32;;;;;;;0.35;0.10;;;;;;;11.24;100.00;100587.09;10535226;28;20040;-83
2023/03/18 18:25:37;;;;;;;0.05;0.05;;;;;;;11.35;100.00;100581.25;10537608;28;20052;-83
2023/03/18 18:30:38;;;;;;;0.20;0.10;;;;;;;11.17;100.00;100579.22;10500875;28;20101;-83
2023/03/18 18:35:41;;;;;;;0.10;0.10;;;;;;;11.09;100.00;100585.09;10532117;28;20067;-83
2023/03/18 18:40:43;;;;;;;0.45;0.22;;;;;;;11.27;100.00;100565.66;10520597;28;20055;-83
2023/03/18 18:45:46;;;;;;;0.28;0.28;;;;;;;10.71;100.00;100571.50;10517601;28;20035;-84
2023/03/18 18:50:47;;;;;;;0.17;0.17;;;;;;;10.47;100.00;100563.28;10531854;28;20044;-83
2023/03/18 18:55:51;;;;;;;0.10;0.10;;;;;;;10.85;100.00;100535.66;10542293;28;20101;-84
2023/03/18 19:00:56;;;;;;;0.38;0.38;;;;;;;11.04;100.00;100521.41;10514776;28;20499;-84
2023/03/18 19:06:00;;;;;;;0.45;0.45;;;;;;;11.23;100.00;100492.53;10523886;28;20048;-83
2023/03/18 19:11:06;;;;;;;3.00;2.30;;;;;;;11.08;100.00;100477.66;10523153;28;20487;-83
2023/03/18 19:16:30;;;;;;;0.17;0.15;;;;;;;11.20;100.00;100471.00;10514339;28;20392;-83
2023/03/18 19:21:32;;;;;;;0.25;0.25;;;;;;;11.06;100.00;100468.19;10519434;28;20036;-83
2023/03/18 19:26:34;;;;;;;0.25;0.20;;;;;;;11.06;100.00;100453.56;10514430;28;20059;-83
2023/03/18 19:31:38;;;;;;;0.68;0.68;;;;;;;11.04;100.00;100444.97;10515499;28;20048;-83
2023/03/18 19:36:47;;;;;;;1.27;0.88;;;;;;;11.16;100.00;100430.50;10488723;28;20131;-83
2023/03/18 19:41:50;;;;;;;0.63;0.63;;;;;;;11.13;100.00;100427.91;10513793;28;20048;-84
2023/03/18 19:46:56;;;;;;;0.03;0.03;;;;;;;11.11;100.00;100423.59;10498477;28;20079;-84
2023/03/18 19:51:58;;;;;;;0.25;0.25;;;;;;;11.23;100.00;100409.13;10520086;28;20427;-83
2023/03/18 19:57:13;;;;;;;9.32;6.35;;;;;;;11.34;100.00;100401.56;10533176;28;20510;-83
2023/03/18 20:02:24;;;;;;;4.13;2.60;;;;;;;11.36;100.00;100395.56;10524415;28;20500;-83
2023/03/18 20:07:31;;;;;;;2.60;2.25;;;;;;;11.39;100.00;100395.63;10523289;28;20049;-85
2023/03/18 20:12:36;;;;;;;4.32;2.85;;;;;;;11.45;100.00;100393.97;10527200;28;20494;-83
2023/03/18 20:17:43;;;;;;;4.93;1.52;;;;;;;11.43;100.00;100389.66;10541706;28;20506;-83
2023/03/18 20:22:51;;;;;;;1.23;0.52;;;;;;;11.37;100.00;100381.84;10522331;28;20376;-84
2023/03/18 20:27:55;;;;;;;1.45;0.80;;;;;;;11.40;100.00;100381.00;10539300;28;20052;-84
2023/03/18 20:32:57;;;;;;;1.80;1.42;;;;;;;11.34;100.00;100391.25;10521025;28;20044;-83
2023/03/18 20:38:03;;;;;;;1.95;1.15;;;;;;;11.37;100.00;100381.84;10519989;28;20560;-84
2023/03/18 20:43:05;;;;;;;3.38;1.50;;;;;;;11.43;100.00;100376.75;10541973;28;20032;-84
2023/03/18 20:48:07;;;;;;;2.33;1.35;;;;;;;11.40;100.00;100376.75;10504087;28;20047;-83
2023/03/18 20:53:16;;;;;;;2.90;1.10;;;;;;;11.44;100.00;100369.91;10516327;28;20566;-84
2023/03/18 20:58:21;;;;;;;1.13;0.95;;;;;;;11.34;100.00;100371.50;10520664;28;20426;-83
2023/03/18 21:03:28;;;;;;;3.92;3.05;;;;;;;11.46;100.00;100385.41;10543270;28;20097;-84
2023/03/18 21:08:31;;;;;;;3.10;2.35;;;;;;;11.60;100.00;100383.88;10518781;28;20040;-82
2023/03/18 21:13:37;;;;;;;1.50;1.08;;;;;;;11.26;100.00;100404.03;10536391;28;20048;-83
2023/03/18 21:18:49;;;;;;;0.52;0.50;;;;;;;11.01;100.00;100413.09;10534701;28;20086;-84
2023/03/18 21:23:52;;;;;;;1.85;0.85;;;;;;;11.26;100.00;100383.41;10514132;28;20135;-83
2023/03/18 21:28:54;;;;;;;1.05;0.68;;;;;;;11.43;100.00;100366.44;10536572;28;20532;-84
2023/03/18 21:33:56;;;;;;;2.47;0.93;;;;;;;11.32;100.00;100367.16;10526175;28;20044;-84
2023/03/18 21:38:57;;;;;;;1.88;0.80;;;;;;;11.43;100.00;100353.56;10514814;28;20048;-83
2023/03/18 21:44:01;;;;;;;1.50;0.70;;;;;;;11.34;100.00;100350.88;10517920;28;20044;-84
2023/03/18 21:49:03;;;;;;;2.80;1.05;;;;;;;11.15;100.00;100354.00;10534715;28;20047;-84
2023/03/18 21:54:12;;;;;;;0.30;0.30;;;;;;;11.23;100.00;100342.97;10524549;28;20047;-84
2023/03/18 21:59:14;;;;;;;0.60;0.30;;;;;;;11.15;100.00;100341.13;10513839;28;20059;-84
2023/03/18 22:04:16;;;;;;;0.98;0.73;;;;;;;11.17;100.00;100342.00;10515728;28;20067;-84
2023/03/18 22:09:18;;;;;;;0.63;0.50;;;;;;;11.00;100.00;100345.19;10532963;28;20047;-83
2023/03/18 22:14:20;;;;;;;0.68;0.50;;;;;;;11.08;100.00;100353.94;10512425;28;20043;-83
2023/03/18 22:19:21;;;;;;;0.55;0.45;;;;;;;11.08;100.00;100364.22;10520191;28;20035;-81
2023/03/18 22:24:23;;;;;;;0.60;0.40;;;;;;;10.93;100.00;100382.03;10540187;28;20097;-79
2023/03/18 22:29:25;;;;;;;3.53;2.17;;;;;;;10.96;100.00;100394.97;10525162;28;20047;-78
2023/03/18 22:34:27;;;;;;;0.38;0.38;;;;;;;10.81;100.00;100415.34;10520032;28;20107;-79
2023/03/18 22:39:28;;;;;;;0.47;0.40;;;;;;;10.68;100.00;100420.31;10552679;27;20040;-78
2023/03/18 22:44:30;;;;;;;0.00;0.00;;;;;;;10.87;100.00;100426.59;10539541;28;20043;-79
2023/03/18 22:49:31;;;;;;;0.38;0.15;;;;;;;10.78;100.00;100447.94;10535907;28;20035;-79
2023/03/18 22:54:33;;;;;;;0.05;0.05;;;;;;;10.50;100.00;100463.72;10556237;28;20097;-79
2023/03/18 22:59:35;;;;;;;0.75;0.30;;;;;;;10.51;100.00;100458.59;10546358;28;20036;-79
2023/03/18 23:04:36;;;;;;;0.47;0.30;;;;;;;10.63;100.00;100463.13;10535696;28;20444;-79
2023/03/18 23:09:38;;;;;;;0.45;0.20;;;;;;;10.67;100.00;100464.94;10531205;28;20483;-79
2023/03/18 23:14:58;;;;;;;0.13;0.08;;;;;;;10.65;100.00;100471.75;10530070;28;20048;-78
2023/03/18 23:19:59;;;;;;;0.30;0.20;;;;;;;10.83;100.00;100475.53;10549724;28;20477;-79